Forum - METEO

POST X METEO

Amministratore
F.ranco52 17/06/2022 ore 08:27 Quota

(nessuno) Nowcasting Venerdì 17 Giugno 2022

Buongiorno e Buona Giornata a tutti





Notizie Meteo dell'Italia da il Meteo .It


http://ilMeteo.It



la Situazione Italiana vista dal Sat









il Radar Europeo













Brindisi

METAR LIBR 170520Z VRB01KT CAVOK 25/15 Q1016=

METAR di Brindisi del 17 alle 5,20z

Vento Variabile 1 nodo (1,852 km) VisibilitÓ 10000 m
Base delle Nubi e VisibilitÓ OK
Temp 25░C Dew 15░C Ur 49% hPa 1016

Brindisi

TAF LIBR 170500Z 1706/1806 VRB05KT CAVOK BECMG 1708/1710 36010KT=

le TAF di Brindisi delle 5z Previsioni dalle 6z alle 6z del 18

Vento Variabile 5 nodi (9,26 km) VisibilitÓ 10000 m
Base delle Nubi e VisibilitÓ OK
le Condizioni Diverranno fra le 8z e le 10z
Vento da 360░ N 10 nodi (18,52 km)


Gioia del Colle

METAR LIBV 170455Z VRB01KT CAVOK 20/13 Q1017 RMK SKC VIS MIN 9999 WIND THR32 VRB02KT WIND THR14 VRB02KT BLU=

METAR di Gioia del Colle del 17 alle 4,55z

Vento Variabile 1 nodo (1,852 km) VisibilitÓ 10000 m
Base delle Nubi e VusibilitÓ OK
Temp 20░C Dew 13░C Ur 63% hPa 1017
NuvolositÓ a 3-4 ottavi
ViusibilitÓ Minima 10000 m

Gioia del Colle

TAF LIBV 170500Z 1706/1715 VRB05KT CAVOK BECMG 1706/1708 36012KT PROB30 TEMPO 1711/1715 6000 SHRA SCT025 FEW035CB=

le TAF di Gioia del Colle delle 5z Previsioni dalle 6z alle 15z

Vento Variabile 5 nodi (9,26 km) VisibilitÓ 10000 m
Base delle Nubi e VisibilitÓ OK
le Condizioni Diverranno fra le 6z e le 8z
Vento da 360░ N 12 nodi (22,224 km)
ProbabilitÓ del 30% di un Cambiamento dalle 11z alle 15z
VisibilitÓ 6000 m , Rovesci di Pioggia
Copertura 3-4 ottavi da 2500 piedi (762 m)
Copertura 1-2 ottavi da 3500 piedi (1066,8 m) Cumulonembi
2763044
Buongiorno e Buona Giornata a tutti Notizie Meteo dell'Italia da il Meteo .It http://ilMeteo.It la Situazione Italiana vista dal...
Discussione
17/06/2022 08:27:31
none
  • mi piace
    iLikeIt
    PublicVote

Vuoi partecipare anche tu a questa discussione?

Rispondi per lasciare il tuo messaggio in questa discussione